Pagrindinis puslapis
METAR-TAF:

METAR-TAF

Oro uostai :

Valensija, Venesuela

platuma: 10-10N, ilguma: 067-56W, Aukštis: 430 m

Dabartinis oras

Ataskaita buvo paskelbta 1 valandą ir 39 minutes, ne 13:00 UTC
Temperatūra 26°C
Drėgmė 79%
Slėgis 1014 hPa
Matomumas 10 km arba daugiau
nėra debesų žemiau 1500 m ir nėra kamuolinių lietaus debesų

METAR: SVVA 171300Z /////KT CAVOK 26/22 Q1014

Laikas: 10:39 (14:39 UTC)

Prognozė

Ataskaita buvo paskelbta 16 valandos ir 39 minutes, ne 22:00 UTC
Prognozė galioja nuo 17 metu 00 UTC su 18 metu 00 UTC
Vėjas 2 kt iš Rytų
Matomumas 10 km arba daugiau
Išsisklaidę debesys ne aukštis 1600 ft
Laikinai
nuo 17 metu 02 UTC su 17 metu 04 UTC
Vėjas 3 kt iš Pietų
Matomumas 10 km arba daugiau
Išsisklaidę debesys ne aukštis 1600 ft
Laikinai
nuo 17 metu 06 UTC su 17 metu 10 UTC
Vėjas 2 kt iš Pietryčių
Matomumas 10 km arba daugiau
Mažai debesys ne aukštis 1600 ft

TAF: SVVA 162200Z 1700/1800 09002KT 9999 SCT016 TX30/1619Z TN22/1708Z TEMPO 1702/1704 18003KT 9999 SCT016 TEMPO 1706/1710 14002KT 9999 FEW016

Orai ataskaitas ir orų prognozės (METAR, TAF).

turimą stotys yra geltonos ir raudonos taškus žemėlapyje.

Perkelti pele per norėdami pamatyti stoties vardą.

Tada spustelėkite, norėdami matyti oro stebėjimo ir prognozės.

Norėdami pakeisti žemėlapį: spustelėkite ant žalios mygtukų su juodo kryžiaus žemyn,; žalią mygtuką su brūkšneliu, jei norite nutolinti; arba žalių rodyklių gretimoms žemėlapius.


METAR-TAF: